Time;durP1;ratioP1;P1;durP2;ratioP2;P2;SDS_P1;SDS_P2;PMS_P1;PMS_P2;Temp;Humidity;BMP_temperature;BMP_pressure;BME280_temperature;BME280_humidity;BME280_pressure;Samples;Min_cycle;Max_cycle;Signal;HPM_P1;HPM_P2
2024/04/14 00:00:01;;;;;;;39.42;23.27;;;;;;;;;;2200386;26;20379;-72
2024/04/14 00:01:05;;;;;;;35.80;22.77;;;;;;;;;;2196302;26;20032;-72
2024/04/14 00:02:08;;;;;;;37.95;23.45;;;;;;;;;;2187612;26;20073;-73
2024/04/14 00:03:09;;;;;;;41.80;24.85;;;;;;;;;;2185051;27;20078;-74
2024/04/14 00:04:11;;;;;;;45.90;25.45;;;;;;;;;;2181845;26;20017;-74
2024/04/14 00:05:12;;;;;;;47.65;25.52;;;;;;;;;;2185879;27;20021;-74
2024/04/14 00:06:16;;;;;;;46.30;23.35;;;;;;;;;;2183967;27;20002;-73
2024/04/14 00:07:18;;;;;;;36.05;21.80;;;;;;;;;;2181997;26;20018;-74
2024/04/14 00:08:19;;;;;;;43.13;23.75;;;;;;;;;;2184459;26;20018;-72
2024/04/14 00:09:20;;;;;;;41.22;23.13;;;;;;;;;;2185045;27;20692;-73
2024/04/14 00:10:24;;;;;;;37.30;22.40;;;;;;;;;;2184755;26;20021;-72
2024/04/14 00:11:25;;;;;;;36.30;23.15;;;;;;;;;;2183908;27;20008;-73
2024/04/14 00:12:26;;;;;;;37.10;23.40;;;;;;;;;;2183894;26;20594;-72
2024/04/14 00:13:32;;;;;;;38.15;22.50;;;;;;;;;;2185794;26;20028;-72
2024/04/14 00:14:36;;;;;;;38.80;24.77;;;;;;;;;;2185743;27;20007;-73
2024/04/14 00:15:37;;;;;;;48.35;27.05;;;;;;;;;;2186164;27;20005;-72
2024/04/14 00:16:38;;;;;;;57.05;26.02;;;;;;;;;;2184356;26;20029;-72
2024/04/14 00:17:42;;;;;;;43.35;25.58;;;;;;;;;;2187403;27;20009;-72
2024/04/14 00:18:43;;;;;;;48.90;25.63;;;;;;;;;;2183443;26;20521;-72
2024/04/14 00:19:44;;;;;;;50.47;25.52;;;;;;;;;;2186497;26;20026;-75
2024/04/14 00:20:48;;;;;;;49.97;26.40;;;;;;;;;;2186187;27;20338;-72
2024/04/14 00:21:49;;;;;;;41.70;25.42;;;;;;;;;;2184823;26;20017;-73
2024/04/14 00:22:50;;;;;;;40.45;24.05;;;;;;;;;;2186401;27;20096;-73
2024/04/14 00:23:51;;;;;;;39.42;23.83;;;;;;;;;;2183094;26;20006;-74
2024/04/14 00:24:55;;;;;;;45.85;24.50;;;;;;;;;;2184923;26;20748;-73
2024/04/14 00:25:56;;;;;;;45.95;23.98;;;;;;;;;;2183962;26;20029;-74
2024/04/14 00:26:57;;;;;;;37.92;23.48;;;;;;;;;;2183901;26;20016;-74
2024/04/14 00:27:58;;;;;;;40.50;22.85;;;;;;;;;;2184882;26;20007;-73
2024/04/14 00:29:02;;;;;;;43.25;23.98;;;;;;;;;;2187763;26;20006;-75
2024/04/14 00:30:07;;;;;;;42.45;23.52;;;;;;;;;;2182886;27;20025;-72
2024/04/14 00:31:08;;;;;;;37.95;23.50;;;;;;;;;;2184722;27;20017;-72
2024/04/14 00:32:10;;;;;;;45.60;23.98;;;;;;;;;;2185695;27;20012;-72
2024/04/14 00:33:14;;;;;;;43.67;24.70;;;;;;;;;;2184079;27;20025;-73
2024/04/14 00:34:15;;;;;;;47.38;26.13;;;;;;;;;;2183747;26;20020;-72
2024/04/14 00:35:16;;;;;;;37.72;24.70;;;;;;;;;;2183276;26;20001;-72
2024/04/14 00:36:17;;;;;;;38.75;23.55;;;;;;;;;;2183779;26;20005;-73
2024/04/14 00:37:21;;;;;;;39.13;25.92;;;;;;;;;;2185020;26;20048;-72
2024/04/14 00:38:22;;;;;;;36.45;23.88;;;;;;;;;;2183315;27;20014;-72
2024/04/14 00:39:24;;;;;;;36.00;23.33;;;;;;;;;;2184860;27;20007;-72
2024/04/14 00:40:25;;;;;;;37.70;21.83;;;;;;;;;;2184959;26;20010;-72
2024/04/14 00:41:28;;;;;;;36.17;23.08;;;;;;;;;;2186513;27;20002;-72
2024/04/14 00:42:29;;;;;;;37.70;21.98;;;;;;;;;;2182171;27;20002;-72
2024/04/14 00:43:31;;;;;;;36.60;22.42;;;;;;;;;;2180549;26;20080;-72
2024/04/14 00:44:32;;;;;;;33.10;21.05;;;;;;;;;;2182689;27;20014;-72
2024/04/14 00:45:38;;;;;;;35.65;21.40;;;;;;;;;;2185611;27;19999;-72
2024/04/14 00:46:39;;;;;;;39.50;22.38;;;;;;;;;;2182218;26;20017;-72
2024/04/14 00:47:40;;;;;;;36.63;20.92;;;;;;;;;;2191081;26;20006;-72
2024/04/14 00:48:44;;;;;;;39.28;21.50;;;;;;;;;;2184169;26;20479;-73
2024/04/14 00:49:45;;;;;;;41.00;23.77;;;;;;;;;;2185602;26;20337;-73
2024/04/14 00:50:47;;;;;;;34.92;22.13;;;;;;;;;;2184992;27;20002;-73
2024/04/14 00:51:48;;;;;;;45.58;23.77;;;;;;;;;;2184697;27;20007;-73
2024/04/14 00:52:52;;;;;;;38.25;22.40;;;;;;;;;;2185384;27;20005;-73
2024/04/14 00:53:53;;;;;;;40.33;23.05;;;;;;;;;;2188535;26;20005;-73
2024/04/14 00:54:55;;;;;;;46.95;22.63;;;;;;;;;;2186040;27;20006;-72
2024/04/14 00:55:58;;;;;;;40.22;21.42;;;;;;;;;;2184747;27;20037;-73
2024/04/14 00:57:00;;;;;;;34.90;22.13;;;;;;;;;;2184511;27;20470;-73
2024/04/14 00:58:02;;;;;;;38.78;21.90;;;;;;;;;;2187093;26;20350;-72
2024/04/14 00:59:06;;;;;;;35.70;21.55;;;;;;;;;;2186204;27;20005;-73
2024/04/14 01:00:08;;;;;;;40.65;21.15;;;;;;;;;;2184662;26;20001;-72
2024/04/14 01:01:13;;;;;;;34.90;20.38;;;;;;;;;;2185414;27;20054;-73
2024/04/14 01:02:14;;;;;;;34.17;20.60;;;;;;;;;;2186252;27;20014;-72
2024/04/14 01:03:18;;;;;;;36.78;21.67;;;;;;;;;;2187007;27;20374;-73
2024/04/14 01:04:19;;;;;;;39.65;20.63;;;;;;;;;;2184911;27;20013;-72
2024/04/14 01:05:21;;;;;;;37.60;20.17;;;;;;;;;;2182839;27;20010;-73
2024/04/14 01:06:22;;;;;;;37.38;21.30;;;;;;;;;;2186590;26;20018;-72
2024/04/14 01:07:23;;;;;;;;;;;;;;;;;;2184389;27;20017;-72
2024/04/14 01:08:27;;;;;;;34.72;20.08;;;;;;;;;;2184960;27;20269;-72
2024/04/14 01:09:28;;;;;;;31.63;19.50;;;;;;;;;;2183130;27;20017;-72
2024/04/14 01:10:30;;;;;;;33.83;18.60;;;;;;;;;;2186108;26;20063;-73
2024/04/14 01:11:31;;;;;;;25.23;18.52;;;;;;;;;;2186176;26;20076;-73
2024/04/14 01:12:35;;;;;;;27.50;19.15;;;;;;;;;;2185301;27;20869;-72
2024/04/14 01:13:36;;;;;;;26.55;19.40;;;;;;;;;;2182247;27;20042;-73
2024/04/14 01:14:37;;;;;;;40.75;21.77;;;;;;;;;;2182505;27;20010;-73
2024/04/14 01:15:38;;;;;;;33.45;21.02;;;;;;;;;;2183715;27;20083;-72
2024/04/14 01:16:45;;;;;;;30.15;20.23;;;;;;;;;;2181696;27;20339;-72
2024/04/14 01:17:46;;;;;;;30.52;19.25;;;;;;;;;;2187645;27;20380;-73
2024/04/14 01:18:48;;;;;;;28.30;19.05;;;;;;;;;;2187481;27;20065;-73
2024/04/14 01:19:49;;;;;;;33.55;20.15;;;;;;;;;;2185628;27;20002;-72
2024/04/14 01:20:53;;;;;;;30.73;18.20;;;;;;;;;;2184769;27;20009;-73
2024/04/14 01:21:54;;;;;;;34.22;20.02;;;;;;;;;;2182012;26;20013;-73
2024/04/14 01:22:55;;;;;;;30.80;19.02;;;;;;;;;;2184343;26;20010;-73
2024/04/14 01:23:57;;;;;;;28.17;18.90;;;;;;;;;;2183045;27;20034;-73
2024/04/14 01:25:06;;;;;;;34.20;19.63;;;;;;;;;;2181142;27;20010;-73
2024/04/14 01:26:07;;;;;;;29.00;18.35;;;;;;;;;;2184500;27;20083;-73
2024/04/14 01:27:08;;;;;;;36.13;18.67;;;;;;;;;;2181952;27;20367;-73
2024/04/14 01:28:10;;;;;;;32.20;19.45;;;;;;;;;;2182837;27;20013;-74
2024/04/14 01:29:14;;;;;;;34.38;18.73;;;;;;;;;;2184127;27;20003;-73
2024/04/14 01:30:15;;;;;;;34.75;18.40;;;;;;;;;;2184955;27;20041;-73
2024/04/14 01:31:15;;;;;;;;;;;;;;;;;;2185477;26;20466;-73
2024/04/14 01:32:16;;;;;;;34.95;18.95;;;;;;;;;;2185641;27;19955;-72
2024/04/14 01:33:20;;;;;;;32.83;19.27;;;;;;;;;;2186630;27;20017;-73
2024/04/14 01:34:21;;;;;;;35.85;18.30;;;;;;;;;;2184134;26;20017;-73
2024/04/14 01:35:22;;;;;;;37.95;19.15;;;;;;;;;;2184963;27;20006;-73
2024/04/14 01:36:23;;;;;;;35.15;18.23;;;;;;;;;;2185225;26;20010;-73
2024/04/14 01:37:27;;;;;;;31.00;19.17;;;;;;;;;;2185228;26;20075;-73
2024/04/14 01:38:28;;;;;;;32.42;17.27;;;;;;;;;;2183389;26;20010;-73
2024/04/14 01:39:29;;;;;;;47.20;20.42;;;;;;;;;;2185332;26;20002;-73
2024/04/14 01:40:33;;;;;;;40.28;19.48;;;;;;;;;;2183166;26;20006;-73
2024/04/14 01:41:37;;;;;;;43.20;18.70;;;;;;;;;;2187893;27;20476;-73
2024/04/14 01:42:38;;;;;;;30.70;19.48;;;;;;;;;;2185146;26;20052;-74
2024/04/14 01:43:39;;;;;;;29.25;17.40;;;;;;;;;;2186330;26;20021;-73
2024/04/14 01:44:40;;;;;;;33.47;17.83;;;;;;;;;;2184812;27;20016;-73
2024/04/14 01:45:45;;;;;;;35.28;17.95;;;;;;;;;;2186210;26;20016;-73
2024/04/14 01:46:46;;;;;;;37.47;18.52;;;;;;;;;;2182603;26;20002;-73
2024/04/14 01:47:47;;;;;;;29.80;18.33;;;;;;;;;;2183402;27;20010;-73
2024/04/14 01:48:50;;;;;;;28.80;17.25;;;;;;;;;;2186673;26;20002;-74
2024/04/14 01:49:52;;;;;;;25.08;17.13;;;;;;;;;;2182559;27;20021;-73
2024/04/14 01:50:53;;;;;;;26.33;16.80;;;;;;;;;;2182480;26;20010;-73
2024/04/14 01:51:56;;;;;;;27.38;18.10;;;;;;;;;;2183545;26;19998;-73
2024/04/14 01:52:57;;;;;;;25.45;18.40;;;;;;;;;;2183841;27;20002;-73
2024/04/14 01:53:59;;;;;;;26.55;17.67;;;;;;;;;;2185143;27;20084;-73
2024/04/14 01:55:00;;;;;;;26.80;17.67;;;;;;;;;;2183411;26;20021;-73
2024/04/14 01:56:04;;;;;;;32.95;18.63;;;;;;;;;;2185245;26;20010;-73
2024/04/14 01:57:08;;;;;;;41.42;19.23;;;;;;;;;;2185243;26;20010;-73
2024/04/14 01:58:09;;;;;;;31.88;17.90;;;;;;;;;;2186451;26;20076;-73
2024/04/14 01:59:12;;;;;;;33.90;17.75;;;;;;;;;;2186986;27;20009;-73
2024/04/14 02:00:14;;;;;;;30.30;17.70;;;;;;;;;;2184651;26;20455;-73
2024/04/14 02:01:18;;;;;;;33.10;18.00;;;;;;;;;;2186466;26;20005;-73
2024/04/14 02:02:19;;;;;;;35.30;18.40;;;;;;;;;;2182837;27;20042;-73
2024/04/14 02:03:20;;;;;;;34.40;17.90;;;;;;;;;;2184160;26;20024;-74
2024/04/14 02:04:21;;;;;;;29.17;18.00;;;;;;;;;;2184093;27;20009;-73
2024/04/14 02:05:25;;;;;;;39.35;18.52;;;;;;;;;;2185509;27;20101;-73
2024/04/14 02:06:26;;;;;;;34.75;17.73;;;;;;;;;;2182692;26;20050;-73
2024/04/14 02:07:27;;;;;;;32.03;18.33;;;;;;;;;;2181911;27;20010;-73
2024/04/14 02:08:28;;;;;;;30.30;18.67;;;;;;;;;;2181625;27;20534;-73
2024/04/14 02:09:32;;;;;;;24.33;17.58;;;;;;;;;;2184395;26;20016;-73
2024/04/14 02:10:39;;;;;;;23.10;17.70;;;;;;;;;;2182339;27;20381;-73
2024/04/14 02:11:43;;;;;;;29.20;18.30;;;;;;;;;;2186064;27;20332;-73
2024/04/14 02:12:44;;;;;;;33.15;18.80;;;;;;;;;;2181974;27;20026;-73
2024/04/14 02:13:47;;;;;;;31.17;17.45;;;;;;;;;;2189543;26;20483;-73
2024/04/14 02:14:48;;;;;;;28.02;17.13;;;;;;;;;;2185357;27;20014;-73
2024/04/14 02:15:49;;;;;;;28.52;17.75;;;;;;;;;;2184672;27;20017;-73
2024/04/14 02:16:50;;;;;;;;;;;;;;;;;;2185633;26;20002;-73
2024/04/14 02:17:54;;;;;;;34.92;18.20;;;;;;;;;;2185490;26;19938;-73
2024/04/14 02:18:55;;;;;;;34.58;19.98;;;;;;;;;;2185653;26;20486;-73
2024/04/14 02:19:56;;;;;;;32.75;18.33;;;;;;;;;;2187786;27;20013;-73
2024/04/14 02:20:57;;;;;;;29.42;17.80;;;;;;;;;;2187386;27;20026;-74
2024/04/14 02:22:01;;;;;;;27.30;17.45;;;;;;;;;;2183101;26;20025;-74
2024/04/14 02:23:02;;;;;;;27.33;17.10;;;;;;;;;;2185433;27;20361;-74
2024/04/14 02:24:03;;;;;;;;;;;;;;;;;;2185220;26;20006;-73
2024/04/14 02:25:04;;;;;;;22.77;16.85;;;;;;;;;;2182884;26;20282;-73
2024/04/14 02:26:08;;;;;;;24.38;17.50;;;;;;;;;;2185336;26;20056;-73
2024/04/14 02:27:12;;;;;;;23.80;17.60;;;;;;;;;;2185837;27;20476;-73
2024/04/14 02:28:13;;;;;;;24.08;17.25;;;;;;;;;;2183386;26;20134;-72
2024/04/14 02:29:14;;;;;;;23.08;16.60;;;;;;;;;;2187822;26;20010;-73
2024/04/14 02:30:18;;;;;;;20.25;16.27;;;;;;;;;;2185116;27;20012;-73
2024/04/14 02:31:19;;;;;;;25.90;17.17;;;;;;;;;;2185386;27;20452;-73
2024/04/14 02:32:20;;;;;;;24.48;17.70;;;;;;;;;;2184048;27;20438;-73
2024/04/14 02:33:24;;;;;;;29.90;18.98;;;;;;;;;;2185466;26;20088;-73
2024/04/14 02:34:25;;;;;;;25.55;17.60;;;;;;;;;;2185151;27;20477;-72
2024/04/14 02:35:26;;;;;;;23.20;17.02;;;;;;;;;;2185802;26;20006;-72
2024/04/14 02:36:28;;;;;;;28.58;17.67;;;;;;;;;;2187377;26;20414;-72
2024/04/14 02:37:32;;;;;;;24.45;17.90;;;;;;;;;;2185279;26;20002;-72
2024/04/14 02:38:33;;;;;;;23.60;17.80;;;;;;;;;;2188616;27;20016;-72
2024/04/14 02:39:34;;;;;;;24.73;17.65;;;;;;;;;;2188529;26;19997;-72
2024/04/14 02:40:35;;;;;;;25.55;18.27;;;;;;;;;;2184533;26;20025;-72
2024/04/14 02:41:40;;;;;;;23.08;17.50;;;;;;;;;;2186436;26;20157;-72
2024/04/14 02:42:43;;;;;;;21.67;17.73;;;;;;;;;;2187243;26;20018;-72
2024/04/14 02:43:45;;;;;;;25.83;17.30;;;;;;;;;;2186191;26;20361;-72
2024/04/14 02:44:46;;;;;;;24.65;16.23;;;;;;;;;;2183643;27;20312;-72
2024/04/14 02:45:49;;;;;;;33.05;17.55;;;;;;;;;;2186505;26;20357;-72
2024/04/14 02:46:50;;;;;;;26.77;17.70;;;;;;;;;;2188739;26;20003;-72
2024/04/14 02:47:51;;;;;;;;;;;;;;;;;;2186140;26;20010;-72
2024/04/14 02:48:52;;;;;;;25.90;17.38;;;;;;;;;;2186041;26;19927;-72
2024/04/14 02:49:56;;;;;;;25.85;17.38;;;;;;;;;;2185217;26;20002;-71
2024/04/14 02:50:57;;;;;;;28.33;17.65;;;;;;;;;;2184946;27;20002;-72
2024/04/14 02:51:58;;;;;;;26.52;16.70;;;;;;;;;;2188064;26;20003;-73
2024/04/14 02:53:02;;;;;;;26.67;17.67;;;;;;;;;;2188106;26;20182;-72
2024/04/14 02:54:03;;;;;;;26.25;17.98;;;;;;;;;;2187932;26;20322;-72
2024/04/14 02:55:05;;;;;;;29.80;17.48;;;;;;;;;;2183290;26;20030;-72
2024/04/14 02:56:06;;;;;;;26.17;17.65;;;;;;;;;;2184731;26;20371;-72
2024/04/14 02:57:10;;;;;;;26.90;17.50;;;;;;;;;;2186131;27;20002;-72
2024/04/14 02:58:14;;;;;;;25.70;17.13;;;;;;;;;;2182908;26;20446;-72
2024/04/14 02:59:15;;;;;;;23.40;16.75;;;;;;;;;;2183280;26;20031;-72
2024/04/14 03:00:16;;;;;;;;;;;;;;;;;;2183461;27;20017;-72
2024/04/14 03:01:19;;;;;;;28.55;16.60;;;;;;;;;;2184227;26;20271;-72
2024/04/14 03:02:21;;;;;;;27.85;17.52;;;;;;;;;;2184411;26;20478;-72
2024/04/14 03:03:22;;;;;;;26.63;17.15;;;;;;;;;;2186883;27;19998;-72
2024/04/14 03:04:23;;;;;;;27.95;17.30;;;;;;;;;;2187877;26;20353;-73
2024/04/14 03:05:27;;;;;;;24.20;17.52;;;;;;;;;;2185139;26;20456;-72
2024/04/14 03:06:28;;;;;;;24.38;17.33;;;;;;;;;;2189686;27;20001;-72
2024/04/14 03:07:29;;;;;;;24.95;17.05;;;;;;;;;;2183091;26;20006;-72
2024/04/14 03:08:30;;;;;;;28.05;17.80;;;;;;;;;;2185872;26;20710;-72
2024/04/14 03:09:34;;;;;;;21.70;16.27;;;;;;;;;;2185332;27;20110;-72
2024/04/14 03:10:35;;;;;;;20.05;16.52;;;;;;;;;;2189729;26;20396;-71
2024/04/14 03:11:36;;;;;;;23.40;17.40;;;;;;;;;;2185468;27;20062;-72
2024/04/14 03:12:39;;;;;;;;;;;;;;;;;;2185450;26;20025;-72
2024/04/14 03:13:43;;;;;;;25.17;16.88;;;;;;;;;;2184472;27;19942;-72
2024/04/14 03:14:44;;;;;;;25.77;17.33;;;;;;;;;;2187277;26;20002;-72
2024/04/14 03:15:45;;;;;;;22.83;16.77;;;;;;;;;;2183817;26;20019;-72
2024/04/14 03:16:49;;;;;;;29.42;18.02;;;;;;;;;;2186835;26;20010;-72
2024/04/14 03:17:50;;;;;;;24.30;16.80;;;;;;;;;;2186841;27;20450;-72
2024/04/14 03:18:51;;;;;;;23.92;17.60;;;;;;;;;;2187424;27;20020;-73
2024/04/14 03:19:52;;;;;;;21.55;15.90;;;;;;;;;;2186586;27;20006;-75
2024/04/14 03:20:58;;;;;;;22.58;17.13;;;;;;;;;;2185265;26;20473;-72
2024/04/14 03:21:59;;;;;;;25.50;17.35;;;;;;;;;;2187398;27;20003;-72
2024/04/14 03:23:00;;;;;;;23.70;17.65;;;;;;;;;;2187483;26;20023;-72
2024/04/14 03:24:01;;;;;;;;;;;;;;;;;;2184143;27;20374;-72
2024/04/14 03:25:05;;;;;;;28.55;17.60;;;;;;;;;;2185426;26;19992;-72
2024/04/14 03:26:09;;;;;;;26.52;17.13;;;;;;;;;;2187610;27;20532;-72
2024/04/14 03:27:10;;;;;;;24.20;17.05;;;;;;;;;;2183341;27;20076;-73
2024/04/14 03:28:13;;;;;;;25.63;17.25;;;;;;;;;;2183233;26;20002;-72
2024/04/14 03:29:17;;;;;;;27.00;17.77;;;;;;;;;;2184055;27;20017;-73
2024/04/14 03:30:18;;;;;;;27.67;17.42;;;;;;;;;;2184952;27;20088;-74
2024/04/14 03:31:19;;;;;;;;;;;;;;;;;;2185908;27;20132;-73
2024/04/14 03:32:23;;;;;;;24.38;15.95;;;;;;;;;;2187056;26;20769;-74
2024/04/14 03:33:24;;;;;;;22.55;17.17;;;;;;;;;;2187108;27;20006;-74
2024/04/14 03:34:25;;;;;;;21.40;16.42;;;;;;;;;;2185727;26;20539;-72
2024/04/14 03:35:26;;;;;;;20.67;17.33;;;;;;;;;;2182655;27;20002;-72
2024/04/14 03:36:30;;;;;;;;;;;;;;;;;;2183883;26;20017;-73
2024/04/14 03:37:35;;;;;;;24.52;17.23;;;;;;;;;;2183751;26;19927;-73
2024/04/14 03:38:36;;;;;;;23.80;17.70;;;;;;;;;;2188232;27;20006;-72
2024/04/14 03:39:38;;;;;;;22.40;17.30;;;;;;;;;;2187425;26;21595;-72
2024/04/14 03:40:41;;;;;;;28.27;18.30;;;;;;;;;;2183965;26;20029;-72
2024/04/14 03:41:42;;;;;;;26.42;16.90;;;;;;;;;;2183241;27;20003;-72
2024/04/14 03:42:46;;;;;;;;;;;;;;;;;;2184674;27;20011;-72
2024/04/14 03:43:47;;;;;;;21.75;16.25;;;;;;;;;;2184326;26;19927;-72
2024/04/14 03:44:53;;;;;;;23.67;16.67;;;;;;;;;;2187051;26;20349;-73
2024/04/14 03:45:54;;;;;;;21.33;17.05;;;;;;;;;;2185595;27;20323;-72
2024/04/14 03:46:58;;;;;;;22.60;17.50;;;;;;;;;;2185137;26;20011;-74
2024/04/14 03:47:59;;;;;;;23.02;17.58;;;;;;;;;;2188639;27;20556;-72
2024/04/14 03:49:00;;;;;;;24.65;17.05;;;;;;;;;;2181219;26;20002;-72
2024/04/14 03:50:04;;;;;;;;;;;;;;;;;;2184598;27;20010;-72
2024/04/14 03:51:05;;;;;;;27.90;18.38;;;;;;;;;;2183223;26;20005;-72
2024/04/14 03:52:07;;;;;;;28.70;17.52;;;;;;;;;;2184079;27;20010;-72
2024/04/14 03:53:08;;;;;;;27.67;17.00;;;;;;;;;;2182022;26;20439;-72
2024/04/14 03:54:12;;;;;;;23.65;17.83;;;;;;;;;;2183701;26;20370;-72
2024/04/14 03:55:13;;;;;;;22.60;17.38;;;;;;;;;;2185046;27;20001;-71
2024/04/14 03:56:14;;;;;;;23.48;17.23;;;;;;;;;;2183826;26;20071;-72
2024/04/14 03:57:15;;;;;;;25.08;17.75;;;;;;;;;;2185525;26;20005;-72
2024/04/14 03:58:16;;;;;;;;;;;;;;;;;;2186614;27;20021;-72
2024/04/14 03:59:20;;;;;;;23.77;16.88;;;;;;;;;;2186777;27;20160;-72
2024/04/14 04:00:24;;;;;;;23.58;17.33;;;;;;;;;;2187220;27;20002;-72
2024/04/14 04:01:25;;;;;;;27.17;17.67;;;;;;;;;;2184443;27;20311;-74
2024/04/14 04:02:26;;;;;;;23.45;17.63;;;;;;;;;;2185560;27;20002;-72
2024/04/14 04:03:30;;;;;;;24.90;17.40;;;;;;;;;;2187229;26;20007;-72
2024/04/14 04:04:31;;;;;;;23.60;16.73;;;;;;;;;;2188080;26;20001;-72
2024/04/14 04:05:32;;;;;;;26.48;17.00;;;;;;;;;;2184196;26;20080;-72
2024/04/14 04:06:35;;;;;;;21.30;17.23;;;;;;;;;;2185739;27;20493;-73
2024/04/14 04:07:36;;;;;;;21.77;17.50;;;;;;;;;;2184795;26;20085;-73
2024/04/14 04:08:38;;;;;;;21.77;17.13;;;;;;;;;;2184117;27;20111;-73
2024/04/14 04:09:39;;;;;;;28.85;17.30;;;;;;;;;;2185437;27;20005;-74
2024/04/14 04:10:42;;;;;;;;;;;;;;;;;;2187188;26;20018;-75
2024/04/14 04:11:43;;;;;;;24.70;17.17;;;;;;;;;;2187927;27;20252;-77
2024/04/14 04:12:44;;;;;;;;;;;;;;;;;;2184190;27;20485;-76
2024/04/14 04:13:45;;;;;;;22.98;17.13;;;;;;;;;;2183606;26;20033;-72
2024/04/14 04:14:49;;;;;;;22.42;16.65;;;;;;;;;;2184368;27;20075;-72
2024/04/14 04:15:59;;;;;;;26.70;17.77;;;;;;;;;;2184129;27;20002;-72
2024/04/14 04:17:00;;;;;;;34.83;18.13;;;;;;;;;;2185467;27;20068;-72
2024/04/14 04:18:01;;;;;;;27.73;16.90;;;;;;;;;;2184856;27;19998;-72
2024/04/14 04:19:05;;;;;;;25.02;17.08;;;;;;;;;;2181362;27;20461;-72
2024/04/14 04:20:07;;;;;;;26.23;17.05;;;;;;;;;;2181926;27;20359;-72
2024/04/14 04:21:09;;;;;;;24.65;17.90;;;;;;;;;;2186735;26;20002;-72
2024/04/14 04:22:10;;;;;;;24.63;17.05;;;;;;;;;;2184202;27;20414;-71
2024/04/14 04:23:14;;;;;;;23.52;16.73;;;;;;;;;;2185638;26;20005;-71
2024/04/14 04:24:15;;;;;;;25.70;16.83;;;;;;;;;;2187170;27;20017;-73
2024/04/14 04:25:16;;;;;;;;;;;;;;;;;;2186856;26;20006;-72
2024/04/14 04:26:17;;;;;;;22.85;16.58;;;;;;;;;;2184901;26;19927;-72
2024/04/14 04:27:18;;;;;;;23.40;17.50;;;;;;;;;;2186464;26;20835;-71
2024/04/14 04:28:21;;;;;;;;;;;;;;;;;;2187815;26;20427;-72
2024/04/14 04:29:24;;;;;;;24.27;17.92;;;;;;;;;;2185924;27;19932;-72
2024/04/14 04:30:26;;;;;;;24.20;17.15;;;;;;;;;;2188500;26;20006;-72
2024/04/14 04:31:29;;;;;;;26.70;16.95;;;;;;;;;;2187286;26;20020;-72
2024/04/14 04:32:33;;;;;;;24.80;17.27;;;;;;;;;;2187674;27;20010;-72
2024/04/14 04:33:34;;;;;;;23.13;17.40;;;;;;;;;;2187204;26;20017;-72
2024/04/14 04:34:35;;;;;;;22.00;16.85;;;;;;;;;;2182743;27;20010;-72
2024/04/14 04:35:36;;;;;;;25.25;17.58;;;;;;;;;;2184346;27;20006;-73
2024/04/14 04:36:40;;;;;;;20.95;17.17;;;;;;;;;;2184348;26;20013;-72
2024/04/14 04:37:41;;;;;;;21.48;17.30;;;;;;;;;;2186621;26;20746;-72
2024/04/14 04:38:42;;;;;;;23.27;16.63;;;;;;;;;;2187292;27;20005;-72
2024/04/14 04:39:43;;;;;;;26.13;17.40;;;;;;;;;;2181829;27;20022;-72
2024/04/14 04:40:47;;;;;;;27.08;17.08;;;;;;;;;;2187385;26;20020;-72
2024/04/14 04:41:48;;;;;;;29.85;18.30;;;;;;;;;;2184834;27;20002;-73
2024/04/14 04:42:50;;;;;;;25.45;16.85;;;;;;;;;;2184152;27;20017;-72
2024/04/14 04:43:53;;;;;;;27.63;17.40;;;;;;;;;;2186246;26;20006;-72
2024/04/14 04:44:54;;;;;;;33.00;17.83;;;;;;;;;;2185547;27;20002;-72
2024/04/14 04:45:55;;;;;;;28.45;16.85;;;;;;;;;;2184692;26;20008;-72
2024/04/14 04:47:02;;;;;;;35.10;17.90;;;;;;;;;;2186277;27;20009;-72
2024/04/14 04:48:04;;;;;;;25.58;17.80;;;;;;;;;;2184353;27;20001;-72
2024/04/14 04:49:05;;;;;;;23.00;16.90;;;;;;;;;;2185136;27;20366;-71
2024/04/14 04:50:09;;;;;;;24.38;17.08;;;;;;;;;;2187792;26;20006;-72
2024/04/14 04:51:10;;;;;;;23.38;17.52;;;;;;;;;;2188288;26;20089;-72
2024/04/14 04:52:11;;;;;;;23.67;16.88;;;;;;;;;;2187161;27;20014;-72
2024/04/14 04:53:14;;;;;;;24.98;17.02;;;;;;;;;;2187945;26;20367;-72
2024/04/14 04:54:17;;;;;;;25.20;16.70;;;;;;;;;;2186243;26;20007;-72
2024/04/14 04:55:18;;;;;;;22.55;17.42;;;;;;;;;;2183887;26;20361;-73
2024/04/14 04:56:19;;;;;;;25.20;16.98;;;;;;;;;;2186133;26;20006;-72
2024/04/14 04:57:21;;;;;;;24.33;16.95;;;;;;;;;;2184254;26;20090;-72
2024/04/14 04:58:24;;;;;;;;;;;;;;;;;;2187463;26;20009;-73
2024/04/14 04:59:25;;;;;;;25.17;17.63;;;;;;;;;;2185296;27;19934;-73
2024/04/14 05:00:26;;;;;;;22.55;17.90;;;;;;;;;;2185556;26;20486;-73
2024/04/14 05:01:27;;;;;;;24.25;17.02;;;;;;;;;;2182310;27;20463;-72
2024/04/14 05:02:33;;;;;;;;;;;;;;;;;;2184641;27;20013;-73
2024/04/14 05:03:35;;;;;;;28.70;17.17;;;;;;;;;;2185657;27;19938;-72
2024/04/14 05:04:36;;;;;;;44.17;18.23;;;;;;;;;;2182383;27;20006;-71
2024/04/14 05:05:37;;;;;;;32.47;17.90;;;;;;;;;;2185395;26;20002;-72
2024/04/14 05:06:41;;;;;;;34.58;19.23;;;;;;;;;;2185383;27;20048;-73
2024/04/14 05:07:42;;;;;;;25.73;17.25;;;;;;;;;;2182875;26;20017;-73
2024/04/14 05:08:43;;;;;;;35.53;18.65;;;;;;;;;;2185202;27;20025;-72
2024/04/14 05:09:44;;;;;;;38.75;17.60;;;;;;;;;;2188246;27;20010;-72
2024/04/14 05:10:47;;;;;;;;;;;;;;;;;;2184552;26;20448;-72
2024/04/14 05:11:48;;;;;;;25.88;17.27;;;;;;;;;;2185269;27;20606;-73
2024/04/14 05:12:49;;;;;;;34.30;18.10;;;;;;;;;;2186560;27;20016;-72
2024/04/14 05:13:51;;;;;;;28.25;16.92;;;;;;;;;;2186250;26;20467;-72
2024/04/14 05:14:52;;;;;;;26.92;17.48;;;;;;;;;;2187333;26;20009;-73
2024/04/14 05:15:56;;;;;;;23.92;17.50;;;;;;;;;;2186940;26;20017;-72
2024/04/14 05:16:57;;;;;;;29.45;17.80;;;;;;;;;;2182328;26;19999;-73
2024/04/14 05:18:01;;;;;;;24.30;18.13;;;;;;;;;;2183019;27;20366;-72
2024/04/14 05:19:02;;;;;;;23.60;16.90;;;;;;;;;;2182852;26;20468;-72
2024/04/14 05:20:06;;;;;;;27.10;18.08;;;;;;;;;;2184090;27;20002;-72
2024/04/14 05:21:07;;;;;;;27.90;17.45;;;;;;;;;;2185310;27;20526;-72
2024/04/14 05:22:08;;;;;;;22.05;17.20;;;;;;;;;;2182896;26;20021;-72
2024/04/14 05:23:09;;;;;;;39.05;18.77;;;;;;;;;;2185902;26;20564;-72
2024/04/14 05:24:13;;;;;;;32.05;18.20;;;;;;;;;;2183768;26;20010;-72
2024/04/14 05:25:14;;;;;;;25.25;17.58;;;;;;;;;;2185465;26;20450;-72
2024/04/14 05:26:15;;;;;;;23.40;16.90;;;;;;;;;;2185962;27;20168;-72
2024/04/14 05:27:16;;;;;;;29.52;17.92;;;;;;;;;;2186732;27;20017;-73
2024/04/14 05:28:20;;;;;;;27.60;18.63;;;;;;;;;;2183799;26;20134;-71
2024/04/14 05:29:22;;;;;;;32.67;17.83;;;;;;;;;;2184153;27;20002;-72
2024/04/14 05:30:23;;;;;;;47.70;19.58;;;;;;;;;;2182908;27;20018;-73
2024/04/14 05:31:24;;;;;;;44.15;20.05;;;;;;;;;;2183241;26;20028;-72
2024/04/14 05:32:28;;;;;;;;;;;;;;;;;;2182762;26;20016;-72
2024/04/14 05:33:31;;;;;;;49.38;17.95;;;;;;;;;;2187666;27;19930;-72
2024/04/14 05:34:33;;;;;;;44.67;18.08;;;;;;;;;;2181956;26;20499;-73
2024/04/14 05:35:34;;;;;;;30.95;17.83;;;;;;;;;;2182569;27;20001;-73
2024/04/14 05:36:37;;;;;;;27.08;17.67;;;;;;;;;;2182024;26;20022;-73
2024/04/14 05:37:39;;;;;;;32.00;17.85;;;;;;;;;;2186549;26;20139;-73
2024/04/14 05:38:41;;;;;;;28.80;18.15;;;;;;;;;;2184551;26;20006;-72
2024/04/14 05:39:44;;;;;;;34.97;19.27;;;;;;;;;;2185000;27;20018;-72
2024/04/14 05:40:46;;;;;;;30.90;17.67;;;;;;;;;;2183602;27;20481;-72
2024/04/14 05:41:47;;;;;;;23.67;17.95;;;;;;;;;;2181721;27;20010;-73
2024/04/14 05:42:47;;;;;;;;;;;;;;;;;;2186726;26;20490;-73
2024/04/14 05:43:51;;;;;;;24.92;17.30;;;;;;;;;;2186057;26;20022;-72
2024/04/14 05:44:52;;;;;;;24.30;18.20;;;;;;;;;;2184186;27;20012;-73
2024/04/14 05:45:53;;;;;;;28.17;17.80;;;;;;;;;;2183121;26;20021;-73
2024/04/14 05:46:55;;;;;;;26.73;19.40;;;;;;;;;;2185780;27;20046;-73
2024/04/14 05:47:58;;;;;;;23.13;18.70;;;;;;;;;;2183001;27;20339;-73
2024/04/14 05:49:03;;;;;;;22.40;18.67;;;;;;;;;;2185427;27;20010;-73
2024/04/14 05:50:04;;;;;;;26.85;18.90;;;;;;;;;;2184260;26;20014;-72
2024/04/14 05:51:08;;;;;;;27.27;19.25;;;;;;;;;;2182262;27;20486;-73
2024/04/14 05:52:09;;;;;;;32.53;20.77;;;;;;;;;;2190055;26;20009;-73
2024/04/14 05:53:12;;;;;;;28.75;20.52;;;;;;;;;;2184583;26;20002;-73
2024/04/14 05:54:16;;;;;;;27.05;20.52;;;;;;;;;;2183783;27;20013;-73
2024/04/14 05:55:17;;;;;;;26.83;19.90;;;;;;;;;;2185608;27;20020;-72
2024/04/14 05:56:18;;;;;;;29.83;21.27;;;;;;;;;;2185340;27;20522;-72
2024/04/14 05:57:19;;;;;;;31.23;21.50;;;;;;;;;;2183375;27;20021;-72
2024/04/14 05:58:23;;;;;;;33.60;21.60;;;;;;;;;;2187239;26;20020;-72
2024/04/14 05:59:24;;;;;;;26.77;20.50;;;;;;;;;;2184033;27;20006;-73
2024/04/14 06:00:25;;;;;;;33.38;19.38;;;;;;;;;;2185800;27;20455;-72
2024/04/14 06:01:26;;;;;;;29.77;20.25;;;;;;;;;;2183470;26;20014;-72
2024/04/14 06:02:30;;;;;;;33.55;21.08;;;;;;;;;;2185049;26;20016;-72
2024/04/14 06:03:31;;;;;;;30.33;20.92;;;;;;;;;;2184819;27;20016;-73
2024/04/14 06:04:35;;;;;;;27.52;19.92;;;;;;;;;;2187260;26;20009;-72